PWSweather.com
Personal Weather Stations
Station Observations
AF1HS
North Haven, CT 06473

North Haven, CT 06473

Lat: 41.3733, Lon: -72.8413

Elevation: 85.3

Station Type: Oregon Scientific WMR968

http://www.af1hs.com/wx/index.php

High Low Average
Temperature 73.4°F23.0°F 65.5°F18.6°F 68.4°F20.2°F
Dew Point 67.6°F19.8°F 53.1°F11.7°F 61.8°F16.6°F
Winds Calm NCalm N Calm Calm Calm Calm
Wind Gusts -- -- --
Humidity 94% 64% 80%
Pressure 29.86 in1011.20 in 29.74 in1007.10 in -
Precipitation 0.00 in0.00 in - -
Hour Temp Dew Point Humidity Winds Wind Gusts Pressure Precip Precip Rate Daily Precip Total
12:10 AM 69.4°F20.8°C 67.6°F19.8°C 94% Calm Calm -- 29.74 in1007.1 mb - 0.00 in0.0 mm 0.00 in0.0 mm
12:21 AM 69.5°F20.8°C 67.3°F19.6°C 93% Calm Calm -- 29.74 in1007.1 mb - 0.00 in0.0 mm 0.00 in0.0 mm
12:31 AM 69.8°F21.0°C 66.7°F19.3°C 90% Calm Calm -- 29.74 in1007.1 mb - 0.00 in0.0 mm 0.00 in0.0 mm
12:41 AM 70.0°F21.1°C 66.3°F19.1°C 88% Calm Calm -- 29.74 in1007.1 mb - 0.00 in0.0 mm 0.00 in0.0 mm
01:11 AM 70.0°F21.1°C 66.2°F19.0°C 88% Calm Calm -- 29.74 in1007.1 mb - 0.00 in0.0 mm 0.00 in0.0 mm
01:21 AM 69.9°F21.1°C 66.2°F19.0°C 88% Calm Calm -- 29.74 in1007.1 mb - 0.00 in0.0 mm 0.00 in0.0 mm
01:32 AM 69.9°F21.1°C 65.9°F18.8°C 87% Calm Calm -- 29.74 in1007.1 mb - 0.00 in0.0 mm 0.00 in0.0 mm
01:41 AM 69.8°F21.0°C 65.8°F18.8°C 87% Calm Calm -- 29.74 in1007.1 mb - 0.00 in0.0 mm 0.00 in0.0 mm
02:21 AM 69.4°F20.8°C 66.4°F19.1°C 90% Calm Calm -- 29.77 in1008.1 mb - 0.00 in0.0 mm 0.00 in0.0 mm
02:31 AM 69.5°F20.8°C 66.1°F18.9°C 89% Calm Calm -- 29.76 in1007.8 mb - 0.00 in0.0 mm 0.00 in0.0 mm
02:42 AM 69.5°F20.8°C 65.8°F18.8°C 88% Calm Calm -- 29.75 in1007.5 mb - 0.00 in0.0 mm 0.00 in0.0 mm
03:41 AM 69.6°F20.9°C 65.9°F18.8°C 88% Calm Calm -- 29.77 in1008.1 mb - 0.00 in0.0 mm 0.00 in0.0 mm
03:51 AM 69.5°F20.8°C 66.1°F18.9°C 89% Calm Calm -- 29.77 in1008.1 mb - 0.00 in0.0 mm 0.00 in0.0 mm
04:01 AM 69.4°F20.8°C 66.1°F18.9°C 89% Calm Calm -- 29.77 in1008.1 mb - 0.00 in0.0 mm 0.00 in0.0 mm
04:51 AM 69.4°F20.8°C 66.1°F18.9°C 89% Calm Calm -- 29.77 in1008.1 mb - 0.00 in0.0 mm 0.00 in0.0 mm
05:01 AM 69.4°F20.8°C 66.0°F18.9°C 89% Calm Calm -- 29.77 in1008.1 mb - 0.00 in0.0 mm 0.00 in0.0 mm
05:11 AM 69.3°F20.7°C 65.9°F18.8°C 89% Calm Calm -- 29.77 in1008.1 mb - 0.00 in0.0 mm 0.00 in0.0 mm
05:22 AM 69.2°F20.7°C 66.2°F19.0°C 90% Calm Calm -- 29.77 in1008.1 mb - 0.00 in0.0 mm 0.00 in0.0 mm
05:41 AM 69.1°F20.6°C 66.0°F18.9°C 90% Calm Calm -- 29.77 in1008.1 mb - 0.00 in0.0 mm 0.00 in0.0 mm
02:21 PM 73.4°F23.0°C 62.2°F16.8°C 68% Calm Calm -- 29.82 in1009.8 mb - 0.00 in0.0 mm 0.00 in0.0 mm
02:41 PM 73.1°F22.8°C 61.5°F16.4°C 67% Calm Calm -- 29.82 in1009.8 mb - 0.00 in0.0 mm 0.00 in0.0 mm
08:32 PM 67.6°F19.8°C 57.5°F14.2°C 70% Calm Calm -- 29.86 in1011.2 mb - 0.00 in0.0 mm 0.00 in0.0 mm
10:11 PM 66.0°F18.9°C 55.6°F13.1°C 69% Calm Calm -- 29.86 in1011.2 mb - 0.00 in0.0 mm 0.00 in0.0 mm
10:21 PM 65.9°F18.8°C 55.5°F13.1°C 69% Calm Calm -- 29.86 in1011.2 mb - 0.00 in0.0 mm 0.00 in0.0 mm
10:31 PM 65.8°F18.8°C 55.4°F13.0°C 69% Calm Calm -- 29.86 in1011.2 mb - 0.00 in0.0 mm 0.00 in0.0 mm
10:41 PM 65.6°F18.7°C 55.2°F12.9°C 69% Calm Calm -- 29.86 in1011.2 mb - 0.00 in0.0 mm 0.00 in0.0 mm
10:51 PM 65.7°F18.7°C 54.8°F12.7°C 68% Calm Calm -- 29.86 in1011.2 mb - 0.00 in0.0 mm 0.00 in0.0 mm
11:01 PM 65.7°F18.7°C 54.4°F12.4°C 67% Calm Calm -- 29.86 in1011.2 mb - 0.00 in0.0 mm 0.00 in0.0 mm
11:11 PM 65.7°F18.7°C 54.0°F12.2°C 66% Calm Calm -- 29.86 in1011.2 mb - 0.00 in0.0 mm 0.00 in0.0 mm
11:21 PM 65.6°F18.7°C 53.9°F12.2°C 66% Calm Calm -- 29.86 in1011.2 mb - 0.00 in0.0 mm 0.00 in0.0 mm
11:31 PM 65.5°F18.6°C 53.4°F11.9°C 65% Calm Calm -- 29.86 in1011.2 mb - 0.00 in0.0 mm 0.00 in0.0 mm
11:41 PM 65.5°F18.6°C 53.4°F11.9°C 65% Calm Calm -- 29.86 in1011.2 mb - 0.00 in0.0 mm 0.00 in0.0 mm
11:51 PM 65.6°F18.7°C 53.1°F11.7°C 64% Calm Calm -- 29.86 in1011.2 mb - 0.00 in0.0 mm 0.00 in0.0 mm